createdAt,value
2018-09-01T00:00:08.299Z,62.30
2018-09-01T00:02:35.659Z,62.30
2018-09-01T00:05:02.651Z,62.00
2018-09-01T00:07:29.674Z,61.70
2018-09-01T00:09:56.977Z,61.40
2018-09-01T00:12:24.095Z,61.50
2018-09-01T00:14:51.348Z,61.50
2018-09-01T00:17:24.398Z,62.00
2018-09-01T00:19:51.395Z,61.60
2018-09-01T00:22:18.365Z,61.70
2018-09-01T00:24:45.329Z,61.20
2018-09-01T00:27:12.350Z,61.10
2018-09-01T00:29:39.279Z,61.20
2018-09-01T00:32:06.340Z,61.30
2018-09-01T00:34:33.343Z,61.50
2018-09-01T00:37:00.346Z,61.60
2018-09-01T00:39:27.730Z,62.80
2018-09-01T00:41:54.735Z,63.70
2018-09-01T00:44:21.723Z,64.80
2018-09-01T00:46:49.045Z,65.60
2018-09-01T00:51:43.066Z,65.90
2018-09-01T00:54:10.059Z,66.20
2018-09-01T00:59:04.024Z,66.00
2018-09-01T01:01:31.294Z,67.10
2018-09-01T01:03:58.249Z,66.00
2018-09-01T01:06:25.246Z,65.90
2018-09-01T01:08:52.533Z,66.40
2018-09-01T02:22:44.356Z,67.80
2018-09-01T02:25:11.436Z,99.90
2018-09-01T02:27:38.404Z,83.50
2018-09-01T02:30:05.403Z,88.70
2018-09-01T02:32:32.778Z,83.60
2018-09-01T02:34:59.746Z,84.50
2018-09-01T02:37:26.808Z,85.10
2018-09-01T02:39:54.207Z,85.60
2018-09-01T02:42:21.182Z,86.40
2018-09-01T02:44:48.194Z,87.00
2018-09-01T02:47:15.570Z,88.10
2018-09-01T02:49:42.550Z,88.00
2018-09-01T02:52:09.530Z,88.20
2018-09-01T02:54:37.471Z,88.90
2018-09-01T02:57:04.688Z,89.30
2018-09-01T02:59:31.686Z,90.10
2018-09-01T03:01:58.648Z,90.00
2018-09-01T03:04:25.653Z,89.30
2018-09-01T03:06:56.557Z,89.50
2018-09-01T03:09:24.310Z,89.70
2018-09-01T03:11:52.138Z,90.80
2018-09-01T03:14:19.362Z,90.60
2018-09-01T03:16:46.735Z,91.70
2018-09-01T03:19:13.708Z,91.90
2018-09-01T03:21:40.703Z,92.90
2018-09-01T03:24:07.981Z,93.60
2018-09-01T03:26:35.589Z,93.70
2018-09-01T03:29:02.538Z,93.50
2018-09-01T03:31:29.494Z,93.60
2018-09-01T03:33:56.496Z,93.90
2018-09-01T03:36:23.458Z,94.10
2018-09-01T03:38:50.846Z,94.50
2018-09-01T03:41:17.858Z,95.60
2018-09-01T03:43:44.862Z,95.30
2018-09-01T05:46:26.893Z,96.30
2018-09-01T05:48:53.854Z,95.50
2018-09-01T05:51:21.184Z,94.10
2018-09-01T05:53:48.194Z,93.20
2018-09-01T05:56:15.138Z,92.20
2018-09-01T05:58:42.782Z,91.70
2018-09-01T06:01:09.788Z,91.70
2018-09-01T06:03:36.739Z,90.40
2018-09-01T06:13:26.014Z,89.80
2018-09-01T06:15:53.069Z,80.10
2018-09-01T06:28:43.899Z,77.30
2018-09-01T06:31:10.965Z,59.70
2018-09-01T06:40:59.488Z,60.60
2018-09-01T06:43:27.069Z,59.40
2018-09-01T06:45:54.046Z,58.20
2018-09-01T07:17:49.410Z,55.20
2018-09-01T15:21:13.890Z,36.80
2018-09-01T15:23:41.195Z,41.60
2018-09-01T15:26:08.251Z,41.90
2018-09-01T15:28:35.271Z,41.70
2018-09-01T15:31:02.332Z,42.70
2018-09-01T16:44:38.779Z,42.10
2018-09-01T16:47:05.887Z,48.10
2018-09-01T16:49:32.908Z,48.00
2018-09-01T16:52:00.320Z,48.00
2018-09-01T16:54:27.269Z,48.90
2018-09-01T17:26:21.654Z,48.40
2018-09-01T17:31:16.195Z,52.30
2018-09-01T17:33:43.367Z,52.20
2018-09-01T17:36:10.458Z,52.20
2018-09-01T17:38:37.615Z,52.40
2018-09-01T17:41:04.625Z,52.50
2018-09-01T17:43:31.922Z,52.60
2018-09-01T17:45:58.891Z,52.60
2018-09-01T17:48:25.903Z,52.80
2018-09-01T17:50:53.271Z,53.10
2018-09-01T17:53:20.264Z,53.40
2018-09-01T17:55:47.288Z,53.40
2018-09-01T17:58:14.473Z,53.80
2018-09-01T18:05:37.094Z,53.90
2018-09-01T18:08:04.102Z,55.00
2018-09-01T18:10:31.095Z,55.00
2018-09-01T18:12:58.423Z,55.00
2018-09-01T18:15:25.436Z,52.80
2018-09-01T18:17:52.462Z,51.70
2018-09-01T18:20:19.486Z,51.60
2018-09-01T18:22:46.459Z,52.40
2018-09-01T18:25:13.560Z,51.60
2018-09-01T18:27:40.992Z,51.80
2018-09-01T18:30:08.302Z,52.10
2018-09-01T18:32:35.303Z,52.30
2018-09-01T18:35:02.720Z,52.70
2018-09-01T18:37:29.778Z,53.10
2018-09-01T18:39:56.747Z,52.40
2018-09-01T18:42:24.176Z,53.10
2018-09-01T18:44:51.201Z,53.20
2018-09-01T18:47:18.370Z,53.40
2018-09-01T18:49:45.344Z,53.40
2018-09-01T18:54:39.663Z,54.60
2018-09-01T18:57:07.170Z,54.60
2018-09-01T18:59:34.170Z,54.40
2018-09-01T19:02:01.240Z,54.30
2018-09-01T19:04:28.732Z,54.20
2018-09-01T19:06:55.908Z,54.30
2018-09-01T19:09:23.032Z,54.40
2018-09-01T19:11:53.335Z,53.90
2018-09-01T19:14:20.535Z,54.00
2018-09-01T19:16:47.726Z,54.10
2018-09-01T19:19:15.111Z,54.20
2018-09-01T19:21:42.237Z,54.40
2018-09-01T19:24:09.296Z,54.60
2018-09-01T19:26:36.587Z,54.60
2018-09-01T19:29:03.585Z,54.30
2018-09-01T19:31:30.600Z,54.40
2018-09-01T19:33:57.575Z,54.50
2018-09-01T19:36:24.581Z,54.70
2018-09-01T19:38:51.718Z,54.80
2018-09-01T19:41:18.969Z,56.00
2018-09-01T19:43:45.976Z,55.80
2018-09-01T19:46:13.019Z,55.30
2018-09-01T19:48:40.300Z,55.30
2018-09-01T19:51:07.308Z,55.50
2018-09-01T19:53:34.285Z,55.90
2018-09-01T19:56:01.589Z,55.60
2018-09-01T19:58:28.567Z,55.70
2018-09-01T20:00:55.538Z,55.30
2018-09-01T20:03:22.484Z,55.80
2018-09-01T20:05:49.449Z,56.20
2018-09-01T20:08:16.433Z,56.50
2018-09-01T20:10:43.657Z,56.70
2018-09-01T20:13:10.640Z,56.90
2018-09-01T20:15:37.641Z,57.10
2018-09-01T20:18:04.982Z,57.20
2018-09-01T20:20:31.983Z,57.40
2018-09-01T20:22:58.968Z,57.80
2018-09-01T20:25:25.990Z,57.70
2018-09-01T20:27:52.943Z,58.00
2018-09-01T20:30:19.970Z,58.00
2018-09-01T20:32:47.222Z,57.40
2018-09-01T20:36:18.879Z,58.40
2018-09-01T20:38:45.853Z,59.00
2018-09-01T20:41:12.825Z,59.40
2018-09-01T20:43:39.789Z,59.80
2018-09-01T20:46:07.036Z,59.80
2018-09-01T20:48:34.003Z,59.60
2018-09-01T20:51:00.961Z,59.80
2018-09-01T20:53:28.179Z,59.70
2018-09-01T20:55:55.133Z,59.80
2018-09-01T20:58:22.060Z,59.80
2018-09-01T21:00:49.363Z,59.60
2018-09-01T21:03:16.638Z,59.70
2018-09-01T21:05:43.617Z,59.60
2018-09-01T21:08:10.606Z,59.60
2018-09-01T21:10:37.595Z,59.60
2018-09-01T21:13:04.607Z,59.50
2018-09-01T21:15:31.613Z,59.30
2018-09-01T21:17:58.559Z,59.30
2018-09-01T21:20:25.569Z,59.30
2018-09-01T21:22:52.566Z,59.40
2018-09-01T21:25:19.533Z,59.60
2018-09-01T21:27:46.524Z,59.70
2018-09-01T21:30:13.867Z,59.80
2018-09-01T21:32:40.858Z,60.20
2018-09-01T21:35:07.814Z,60.20
2018-09-01T21:37:35.125Z,60.50
2018-09-01T21:40:02.112Z,59.90
2018-09-01T21:42:29.098Z,59.90
2018-09-01T21:44:56.082Z,60.30
2018-09-01T21:47:23.043Z,60.70
2018-09-01T21:49:50.127Z,60.70
2018-09-01T21:52:17.305Z,60.90
2018-09-01T21:54:44.270Z,61.40
2018-09-01T21:57:11.364Z,62.10
2018-09-01T21:59:38.568Z,62.30
2018-09-01T22:02:11.493Z,62.90
2018-09-01T22:04:44.539Z,62.40
2018-09-01T22:07:11.536Z,62.20
2018-09-01T22:09:38.522Z,62.80
2018-09-01T22:12:05.821Z,62.70
2018-09-01T22:14:32.813Z,62.80
2018-09-01T22:16:59.803Z,62.40
2018-09-01T22:19:27.100Z,62.80
2018-09-01T22:21:54.098Z,62.80
2018-09-01T22:24:21.135Z,62.90
2018-09-01T22:26:48.159Z,62.70
2018-09-01T22:29:15.140Z,62.70
2018-09-01T22:31:42.138Z,62.80
2018-09-01T22:34:09.508Z,62.70
2018-09-01T22:36:36.517Z,62.80
2018-09-01T22:39:04.834Z,62.90
2018-09-01T22:41:32.419Z,62.90
2018-09-01T22:43:59.424Z,62.90
2018-09-01T22:46:26.360Z,63.20
2018-09-01T22:48:53.694Z,64.30
2018-09-01T22:51:20.687Z,64.60
2018-09-01T22:53:47.620Z,64.60
2018-09-01T22:56:14.598Z,64.90
2018-09-01T22:58:41.595Z,65.50
2018-09-01T23:01:08.520Z,65.90
2018-09-01T23:03:36.081Z,66.40
2018-09-01T23:06:03.035Z,67.20
2018-09-01T23:08:30.021Z,68.20
2018-09-01T23:10:56.993Z,69.30
2018-09-01T23:13:23.982Z,70.30
2018-09-01T23:15:51.075Z,71.60
2018-09-01T23:18:21.853Z,72.80
2018-09-01T23:20:48.825Z,73.50
2018-09-01T23:23:15.835Z,74.60
2018-09-01T23:25:42.778Z,75.80
2018-09-01T23:28:09.775Z,77.30
2018-09-01T23:30:36.739Z,78.10
2018-09-01T23:33:03.714Z,80.30
2018-09-01T23:35:30.632Z,82.30
2018-09-01T23:37:57.544Z,83.40
2018-09-01T23:40:24.856Z,85.00
2018-09-01T23:42:51.802Z,86.00
2018-09-01T23:45:18.729Z,86.80
2018-09-01T23:47:45.661Z,86.90
2018-09-01T23:50:12.631Z,88.00
2018-09-01T23:52:39.545Z,88.70
2018-09-01T23:55:06.797Z,89.70
2018-09-01T23:57:33.728Z,90.00
